sensor_id;sensor_type;location;lat;lon;timestamp;P1;durP1;ratioP1;P2;durP2;ratioP2
76262;SDS011;65080;50.908;6.916;2023-02-19T00:01:43;5.10;;;3.87;;
76262;SDS011;65080;50.908;6.916;2023-02-19T00:04:13;5.10;;;4.50;;
76262;SDS011;65080;50.908;6.916;2023-02-19T00:06:43;5.10;;;4.17;;
76262;SDS011;65080;50.908;6.916;2023-02-19T00:09:13;5.13;;;4.63;;
76262;SDS011;65080;50.908;6.916;2023-02-19T00:11:42;7.40;;;6.03;;
76262;SDS011;65080;50.908;6.916;2023-02-19T00:14:14;6.57;;;5.57;;
76262;SDS011;65080;50.908;6.916;2023-02-19T00:16:44;11.67;;;6.40;;
76262;SDS011;65080;50.908;6.916;2023-02-19T00:19:13;7.97;;;5.67;;
76262;SDS011;65080;50.908;6.916;2023-02-19T00:21:43;7.00;;;5.97;;
76262;SDS011;65080;50.908;6.916;2023-02-19T00:24:11;10.53;;;6.27;;
76262;SDS011;65080;50.908;6.916;2023-02-19T00:26:41;6.63;;;5.30;;
76262;SDS011;65080;50.908;6.916;2023-02-19T00:29:11;5.70;;;4.67;;
76262;SDS011;65080;50.908;6.916;2023-02-19T00:31:42;5.00;;;4.37;;
76262;SDS011;65080;50.908;6.916;2023-02-19T00:34:11;7.50;;;4.93;;
76262;SDS011;65080;50.908;6.916;2023-02-19T00:36:40;6.90;;;4.53;;
76262;SDS011;65080;50.908;6.916;2023-02-19T00:39:10;6.27;;;4.17;;
76262;SDS011;65080;50.908;6.916;2023-02-19T00:41:41;6.23;;;4.00;;
76262;SDS011;65080;50.908;6.916;2023-02-19T00:44:09;5.90;;;4.47;;
76262;SDS011;65080;50.908;6.916;2023-02-19T00:46:41;6.97;;;4.47;;
76262;SDS011;65080;50.908;6.916;2023-02-19T00:49:12;4.80;;;4.30;;
76262;SDS011;65080;50.908;6.916;2023-02-19T00:51:45;6.63;;;5.00;;
76262;SDS011;65080;50.908;6.916;2023-02-19T00:54:14;7.80;;;4.67;;
76262;SDS011;65080;50.908;6.916;2023-02-19T00:56:43;5.00;;;4.07;;
76262;SDS011;65080;50.908;6.916;2023-02-19T00:59:11;6.27;;;4.57;;
76262;SDS011;65080;50.908;6.916;2023-02-19T01:01:42;4.87;;;4.37;;
76262;SDS011;65080;50.908;6.916;2023-02-19T01:04:11;4.93;;;3.57;;
76262;SDS011;65080;50.908;6.916;2023-02-19T01:06:40;4.97;;;3.53;;
76262;SDS011;65080;50.908;6.916;2023-02-19T01:09:08;4.90;;;4.17;;
76262;SDS011;65080;50.908;6.916;2023-02-19T01:11:37;5.07;;;3.70;;
76262;SDS011;65080;50.908;6.916;2023-02-19T01:14:05;5.07;;;3.73;;
76262;SDS011;65080;50.908;6.916;2023-02-19T01:16:33;4.27;;;3.77;;
76262;SDS011;65080;50.908;6.916;2023-02-19T01:19:03;5.07;;;4.17;;
76262;SDS011;65080;50.908;6.916;2023-02-19T01:21:31;3.80;;;3.27;;
76262;SDS011;65080;50.908;6.916;2023-02-19T01:23:59;4.80;;;3.57;;
76262;SDS011;65080;50.908;6.916;2023-02-19T01:26:28;4.43;;;3.67;;
76262;SDS011;65080;50.908;6.916;2023-02-19T01:28:58;5.37;;;3.90;;
76262;SDS011;65080;50.908;6.916;2023-02-19T01:31:27;4.70;;;4.20;;
76262;SDS011;65080;50.908;6.916;2023-02-19T01:33:57;8.37;;;4.20;;
76262;SDS011;65080;50.908;6.916;2023-02-19T01:36:31;5.43;;;4.53;;
76262;SDS011;65080;50.908;6.916;2023-02-19T01:39:00;5.40;;;4.00;;
76262;SDS011;65080;50.908;6.916;2023-02-19T01:41:31;5.93;;;4.57;;
76262;SDS011;65080;50.908;6.916;2023-02-19T01:44:03;5.60;;;4.10;;
76262;SDS011;65080;50.908;6.916;2023-02-19T01:46:33;4.87;;;4.00;;
76262;SDS011;65080;50.908;6.916;2023-02-19T01:49:03;7.73;;;4.27;;
76262;SDS011;65080;50.908;6.916;2023-02-19T01:51:37;6.83;;;4.33;;
76262;SDS011;65080;50.908;6.916;2023-02-19T01:54:10;6.00;;;4.60;;
76262;SDS011;65080;50.908;6.916;2023-02-19T01:56:41;6.70;;;4.80;;
76262;SDS011;65080;50.908;6.916;2023-02-19T01:59:11;7.17;;;5.00;;
76262;SDS011;65080;50.908;6.916;2023-02-19T02:01:40;5.20;;;4.50;;
76262;SDS011;65080;50.908;6.916;2023-02-19T02:04:09;8.53;;;4.93;;
76262;SDS011;65080;50.908;6.916;2023-02-19T02:06:42;7.17;;;4.70;;
76262;SDS011;65080;50.908;6.916;2023-02-19T02:09:14;6.37;;;4.33;;
76262;SDS011;65080;50.908;6.916;2023-02-19T02:12:12;8.23;;;4.73;;
76262;SDS011;65080;50.908;6.916;2023-02-19T02:14:41;4.83;;;4.20;;
76262;SDS011;65080;50.908;6.916;2023-02-19T02:17:13;5.47;;;4.47;;
76262;SDS011;65080;50.908;6.916;2023-02-19T02:19:51;6.47;;;4.70;;
76262;SDS011;65080;50.908;6.916;2023-02-19T02:22:31;4.37;;;3.87;;
76262;SDS011;65080;50.908;6.916;2023-02-19T02:25:08;5.40;;;4.30;;
76262;SDS011;65080;50.908;6.916;2023-02-19T02:27:50;6.30;;;4.03;;
76262;SDS011;65080;50.908;6.916;2023-02-19T02:30:34;8.20;;;4.53;;
76262;SDS011;65080;50.908;6.916;2023-02-19T02:33:10;5.60;;;4.10;;
76262;SDS011;65080;50.908;6.916;2023-02-19T02:35:51;5.93;;;4.40;;
76262;SDS011;65080;50.908;6.916;2023-02-19T02:38:24;5.43;;;4.60;;
76262;SDS011;65080;50.908;6.916;2023-02-19T02:40:55;5.43;;;4.60;;
76262;SDS011;65080;50.908;6.916;2023-02-19T02:43:24;6.67;;;5.00;;
76262;SDS011;65080;50.908;6.916;2023-02-19T02:45:54;6.43;;;5.30;;
76262;SDS011;65080;50.908;6.916;2023-02-19T02:48:24;8.73;;;4.90;;
76262;SDS011;65080;50.908;6.916;2023-02-19T02:50:58;9.10;;;4.90;;
76262;SDS011;65080;50.908;6.916;2023-02-19T02:53:30;8.37;;;4.90;;
76262;SDS011;65080;50.908;6.916;2023-02-19T02:56:21;6.70;;;5.00;;
76262;SDS011;65080;50.908;6.916;2023-02-19T02:58:52;6.27;;;4.60;;
76262;SDS011;65080;50.908;6.916;2023-02-19T03:01:24;7.27;;;4.70;;
76262;SDS011;65080;50.908;6.916;2023-02-19T03:04:18;6.13;;;3.60;;
76262;SDS011;65080;50.908;6.916;2023-02-19T03:06:51;7.40;;;4.30;;
76262;SDS011;65080;50.908;6.916;2023-02-19T03:09:22;6.30;;;4.40;;
76262;SDS011;65080;50.908;6.916;2023-02-19T03:12:00;6.43;;;5.23;;
76262;SDS011;65080;50.908;6.916;2023-02-19T03:14:49;6.00;;;4.93;;
76262;SDS011;65080;50.908;6.916;2023-02-19T03:17:41;6.87;;;4.53;;
76262;SDS011;65080;50.908;6.916;2023-02-19T03:20:32;9.50;;;5.57;;
76262;SDS011;65080;50.908;6.916;2023-02-19T03:23:02;8.00;;;5.47;;
76262;SDS011;65080;50.908;6.916;2023-02-19T03:25:32;10.20;;;5.83;;
76262;SDS011;65080;50.908;6.916;2023-02-19T03:28:21;8.30;;;5.50;;
76262;SDS011;65080;50.908;6.916;2023-02-19T03:31:13;10.97;;;5.90;;
76262;SDS011;65080;50.908;6.916;2023-02-19T03:33:47;10.80;;;6.57;;
76262;SDS011;65080;50.908;6.916;2023-02-19T03:36:20;12.90;;;6.50;;
76262;SDS011;65080;50.908;6.916;2023-02-19T03:38:53;11.47;;;7.53;;
76262;SDS011;65080;50.908;6.916;2023-02-19T03:41:28;12.40;;;6.07;;
76262;SDS011;65080;50.908;6.916;2023-02-19T03:44:02;17.53;;;7.60;;
76262;SDS011;65080;50.908;6.916;2023-02-19T03:46:40;14.33;;;6.40;;
76262;SDS011;65080;50.908;6.916;2023-02-19T03:49:16;13.30;;;7.40;;
76262;SDS011;65080;50.908;6.916;2023-02-19T03:51:52;12.07;;;7.27;;
76262;SDS011;65080;50.908;6.916;2023-02-19T03:54:29;12.10;;;6.83;;
76262;SDS011;65080;50.908;6.916;2023-02-19T03:57:02;14.17;;;7.70;;
76262;SDS011;65080;50.908;6.916;2023-02-19T03:59:36;15.37;;;7.40;;
76262;SDS011;65080;50.908;6.916;2023-02-19T04:02:08;11.47;;;6.43;;
76262;SDS011;65080;50.908;6.916;2023-02-19T04:04:42;16.13;;;7.60;;
76262;SDS011;65080;50.908;6.916;2023-02-19T04:07:14;11.70;;;6.43;;
76262;SDS011;65080;50.908;6.916;2023-02-19T04:09:43;12.07;;;7.70;;
76262;SDS011;65080;50.908;6.916;2023-02-19T04:12:15;10.53;;;7.47;;
76262;SDS011;65080;50.908;6.916;2023-02-19T04:14:46;12.20;;;7.10;;
76262;SDS011;65080;50.908;6.916;2023-02-19T04:17:18;12.23;;;7.53;;
76262;SDS011;65080;50.908;6.916;2023-02-19T04:19:52;13.80;;;8.63;;
76262;SDS011;65080;50.908;6.916;2023-02-19T04:22:22;13.97;;;8.83;;
76262;SDS011;65080;50.908;6.916;2023-02-19T04:24:52;11.57;;;8.40;;
76262;SDS011;65080;50.908;6.916;2023-02-19T04:27:21;9.90;;;7.73;;
76262;SDS011;65080;50.908;6.916;2023-02-19T04:29:50;18.23;;;8.90;;
76262;SDS011;65080;50.908;6.916;2023-02-19T04:32:18;14.00;;;8.07;;
76262;SDS011;65080;50.908;6.916;2023-02-19T04:34:46;13.53;;;8.73;;
76262;SDS011;65080;50.908;6.916;2023-02-19T04:37:16;14.43;;;7.80;;
76262;SDS011;65080;50.908;6.916;2023-02-19T04:39:44;12.50;;;8.20;;
76262;SDS011;65080;50.908;6.916;2023-02-19T04:42:13;14.40;;;8.40;;
76262;SDS011;65080;50.908;6.916;2023-02-19T04:44:41;15.50;;;9.23;;
76262;SDS011;65080;50.908;6.916;2023-02-19T04:47:09;13.07;;;8.73;;
76262;SDS011;65080;50.908;6.916;2023-02-19T04:49:37;16.23;;;9.10;;
76262;SDS011;65080;50.908;6.916;2023-02-19T04:52:06;14.67;;;8.77;;
76262;SDS011;65080;50.908;6.916;2023-02-19T04:54:35;15.90;;;8.20;;
76262;SDS011;65080;50.908;6.916;2023-02-19T04:57:03;16.67;;;9.40;;
76262;SDS011;65080;50.908;6.916;2023-02-19T04:59:32;14.10;;;9.27;;
76262;SDS011;65080;50.908;6.916;2023-02-19T05:02:00;17.10;;;8.90;;
76262;SDS011;65080;50.908;6.916;2023-02-19T05:04:28;14.37;;;9.13;;
76262;SDS011;65080;50.908;6.916;2023-02-19T05:06:57;18.10;;;9.80;;
76262;SDS011;65080;50.908;6.916;2023-02-19T05:09:25;18.90;;;8.37;;
76262;SDS011;65080;50.908;6.916;2023-02-19T05:11:55;17.23;;;10.07;;
76262;SDS011;65080;50.908;6.916;2023-02-19T05:14:23;11.73;;;8.87;;
76262;SDS011;65080;50.908;6.916;2023-02-19T05:16:51;13.87;;;9.50;;
76262;SDS011;65080;50.908;6.916;2023-02-19T05:19:19;15.03;;;9.20;;
76262;SDS011;65080;50.908;6.916;2023-02-19T05:21:48;13.23;;;8.73;;
76262;SDS011;65080;50.908;6.916;2023-02-19T05:24:16;16.67;;;9.70;;
76262;SDS011;65080;50.908;6.916;2023-02-19T05:26:44;18.57;;;9.70;;
76262;SDS011;65080;50.908;6.916;2023-02-19T05:29:15;22.10;;;9.73;;
76262;SDS011;65080;50.908;6.916;2023-02-19T05:31:43;18.57;;;9.90;;
76262;SDS011;65080;50.908;6.916;2023-02-19T05:34:11;15.47;;;9.43;;
76262;SDS011;65080;50.908;6.916;2023-02-19T05:36:39;18.27;;;9.80;;
76262;SDS011;65080;50.908;6.916;2023-02-19T05:39:08;19.87;;;9.90;;
76262;SDS011;65080;50.908;6.916;2023-02-19T05:41:38;18.70;;;10.00;;
76262;SDS011;65080;50.908;6.916;2023-02-19T05:44:08;14.53;;;8.13;;
76262;SDS011;65080;50.908;6.916;2023-02-19T05:46:38;15.70;;;9.80;;
76262;SDS011;65080;50.908;6.916;2023-02-19T05:49:06;17.70;;;10.67;;
76262;SDS011;65080;50.908;6.916;2023-02-19T05:51:34;20.10;;;11.10;;
76262;SDS011;65080;50.908;6.916;2023-02-19T05:54:03;20.47;;;10.83;;
76262;SDS011;65080;50.908;6.916;2023-02-19T05:56:32;18.37;;;11.00;;
76262;SDS011;65080;50.908;6.916;2023-02-19T05:59:02;16.17;;;10.40;;
76262;SDS011;65080;50.908;6.916;2023-02-19T06:01:33;21.40;;;11.47;;
76262;SDS011;65080;50.908;6.916;2023-02-19T06:04:03;16.07;;;11.17;;
76262;SDS011;65080;50.908;6.916;2023-02-19T06:06:32;25.57;;;12.30;;
76262;SDS011;65080;50.908;6.916;2023-02-19T06:09:00;17.83;;;10.90;;
76262;SDS011;65080;50.908;6.916;2023-02-19T06:11:29;14.80;;;10.90;;
76262;SDS011;65080;50.908;6.916;2023-02-19T06:13:57;19.10;;;11.33;;
76262;SDS011;65080;50.908;6.916;2023-02-19T06:16:25;19.50;;;10.40;;
76262;SDS011;65080;50.908;6.916;2023-02-19T06:18:54;20.27;;;11.03;;
76262;SDS011;65080;50.908;6.916;2023-02-19T06:21:23;16.77;;;10.40;;
76262;SDS011;65080;50.908;6.916;2023-02-19T06:23:51;21.97;;;10.73;;
76262;SDS011;65080;50.908;6.916;2023-02-19T06:26:21;17.50;;;10.30;;
76262;SDS011;65080;50.908;6.916;2023-02-19T06:28:51;19.80;;;9.90;;
76262;SDS011;65080;50.908;6.916;2023-02-19T06:31:20;23.77;;;11.23;;
76262;SDS011;65080;50.908;6.916;2023-02-19T06:33:49;18.10;;;10.77;;
76262;SDS011;65080;50.908;6.916;2023-02-19T06:36:18;24.70;;;12.03;;
76262;SDS011;65080;50.908;6.916;2023-02-19T06:38:49;21.43;;;10.90;;
76262;SDS011;65080;50.908;6.916;2023-02-19T06:41:18;21.47;;;11.47;;
76262;SDS011;65080;50.908;6.916;2023-02-19T06:43:46;15.53;;;9.60;;
76262;SDS011;65080;50.908;6.916;2023-02-19T06:46:14;22.33;;;10.60;;
76262;SDS011;65080;50.908;6.916;2023-02-19T06:48:43;14.30;;;9.80;;
76262;SDS011;65080;50.908;6.916;2023-02-19T06:51:12;19.70;;;10.30;;
76262;SDS011;65080;50.908;6.916;2023-02-19T06:53:44;18.27;;;9.77;;
76262;SDS011;65080;50.908;6.916;2023-02-19T06:56:21;17.93;;;10.53;;
76262;SDS011;65080;50.908;6.916;2023-02-19T06:58:51;13.43;;;8.50;;
76262;SDS011;65080;50.908;6.916;2023-02-19T07:01:21;14.40;;;8.80;;
76262;SDS011;65080;50.908;6.916;2023-02-19T07:03:53;16.77;;;8.90;;
76262;SDS011;65080;50.908;6.916;2023-02-19T07:06:23;15.97;;;9.13;;
76262;SDS011;65080;50.908;6.916;2023-02-19T07:08:53;13.37;;;8.63;;
76262;SDS011;65080;50.908;6.916;2023-02-19T07:11:23;17.47;;;8.70;;
76262;SDS011;65080;50.908;6.916;2023-02-19T07:13:55;15.23;;;9.20;;
76262;SDS011;65080;50.908;6.916;2023-02-19T07:16:24;10.17;;;7.37;;
76262;SDS011;65080;50.908;6.916;2023-02-19T07:18:54;15.40;;;8.50;;
76262;SDS011;65080;50.908;6.916;2023-02-19T07:21:23;14.97;;;8.47;;
76262;SDS011;65080;50.908;6.916;2023-02-19T07:23:52;19.73;;;8.60;;
76262;SDS011;65080;50.908;6.916;2023-02-19T07:26:21;15.23;;;8.57;;
76262;SDS011;65080;50.908;6.916;2023-02-19T07:28:51;15.87;;;8.77;;
76262;SDS011;65080;50.908;6.916;2023-02-19T07:31:20;19.10;;;9.57;;
76262;SDS011;65080;50.908;6.916;2023-02-19T07:33:50;16.87;;;9.00;;
76262;SDS011;65080;50.908;6.916;2023-02-19T07:36:19;13.90;;;8.53;;
76262;SDS011;65080;50.908;6.916;2023-02-19T07:38:51;19.60;;;9.00;;
76262;SDS011;65080;50.908;6.916;2023-02-19T07:41:21;17.60;;;9.50;;
76262;SDS011;65080;50.908;6.916;2023-02-19T07:43:52;17.50;;;8.70;;
76262;SDS011;65080;50.908;6.916;2023-02-19T07:46:21;16.57;;;8.80;;
76262;SDS011;65080;50.908;6.916;2023-02-19T07:48:49;15.30;;;8.43;;
76262;SDS011;65080;50.908;6.916;2023-02-19T07:51:18;14.47;;;8.20;;
76262;SDS011;65080;50.908;6.916;2023-02-19T07:53:47;13.53;;;7.77;;
76262;SDS011;65080;50.908;6.916;2023-02-19T07:56:17;16.70;;;8.13;;
76262;SDS011;65080;50.908;6.916;2023-02-19T07:58:45;16.57;;;8.50;;
76262;SDS011;65080;50.908;6.916;2023-02-19T08:01:16;13.10;;;6.80;;
76262;SDS011;65080;50.908;6.916;2023-02-19T08:03:45;15.43;;;8.40;;
76262;SDS011;65080;50.908;6.916;2023-02-19T08:06:15;16.27;;;8.13;;
76262;SDS011;65080;50.908;6.916;2023-02-19T08:08:44;20.20;;;8.80;;
76262;SDS011;65080;50.908;6.916;2023-02-19T08:11:12;16.27;;;9.10;;
76262;SDS011;65080;50.908;6.916;2023-02-19T08:13:58;16.33;;;8.53;;
76262;SDS011;65080;50.908;6.916;2023-02-19T08:16:27;17.70;;;7.80;;
76262;SDS011;65080;50.908;6.916;2023-02-19T08:19:08;12.43;;;7.60;;
76262;SDS011;65080;50.908;6.916;2023-02-19T08:21:36;13.73;;;7.93;;
76262;SDS011;65080;50.908;6.916;2023-02-19T08:24:05;17.27;;;8.13;;
76262;SDS011;65080;50.908;6.916;2023-02-19T08:26:33;17.67;;;7.60;;
76262;SDS011;65080;50.908;6.916;2023-02-19T08:29:02;15.27;;;6.97;;
76262;SDS011;65080;50.908;6.916;2023-02-19T08:31:32;16.60;;;7.93;;
76262;SDS011;65080;50.908;6.916;2023-02-19T08:34:01;15.53;;;8.77;;
76262;SDS011;65080;50.908;6.916;2023-02-19T08:36:29;14.30;;;7.57;;
76262;SDS011;65080;50.908;6.916;2023-02-19T08:38:57;12.80;;;6.93;;
76262;SDS011;65080;50.908;6.916;2023-02-19T08:41:26;18.80;;;7.47;;
76262;SDS011;65080;50.908;6.916;2023-02-19T08:43:54;13.70;;;7.60;;
76262;SDS011;65080;50.908;6.916;2023-02-19T15:46:06;15.90;;;8.53;;
76262;SDS011;65080;50.908;6.916;2023-02-19T15:48:40;20.93;;;8.77;;
76262;SDS011;65080;50.908;6.916;2023-02-19T15:51:13;14.43;;;8.60;;
76262;SDS011;65080;50.908;6.916;2023-02-19T15:53:47;11.43;;;8.33;;
76262;SDS011;65080;50.908;6.916;2023-02-19T15:56:22;16.10;;;8.30;;
76262;SDS011;65080;50.908;6.916;2023-02-19T15:58:55;9.57;;;7.80;;
76262;SDS011;65080;50.908;6.916;2023-02-19T16:01:29;13.13;;;7.30;;
76262;SDS011;65080;50.908;6.916;2023-02-19T16:03:59;13.10;;;8.07;;
76262;SDS011;65080;50.908;6.916;2023-02-19T16:06:28;12.80;;;7.23;;
76262;SDS011;65080;50.908;6.916;2023-02-19T16:09:01;9.90;;;6.50;;
76262;SDS011;65080;50.908;6.916;2023-02-19T16:11:33;12.70;;;6.80;;
76262;SDS011;65080;50.908;6.916;2023-02-19T16:14:16;10.53;;;6.90;;
76262;SDS011;65080;50.908;6.916;2023-02-19T16:16:51;10.13;;;6.80;;
76262;SDS011;65080;50.908;6.916;2023-02-19T16:19:22;12.00;;;6.77;;
76262;SDS011;65080;50.908;6.916;2023-02-19T16:21:54;11.83;;;6.07;;
76262;SDS011;65080;50.908;6.916;2023-02-19T16:24:26;12.37;;;7.07;;
76262;SDS011;65080;50.908;6.916;2023-02-19T16:26:56;12.70;;;6.27;;
76262;SDS011;65080;50.908;6.916;2023-02-19T16:29:26;9.17;;;6.17;;
76262;SDS011;65080;50.908;6.916;2023-02-19T16:31:59;10.37;;;6.60;;
76262;SDS011;65080;50.908;6.916;2023-02-19T16:34:30;8.50;;;5.87;;
76262;SDS011;65080;50.908;6.916;2023-02-19T16:37:01;13.17;;;7.83;;
76262;SDS011;65080;50.908;6.916;2023-02-19T16:39:30;9.80;;;6.10;;
76262;SDS011;65080;50.908;6.916;2023-02-19T16:42:09;12.40;;;5.93;;
76262;SDS011;65080;50.908;6.916;2023-02-19T16:44:40;12.43;;;5.80;;
76262;SDS011;65080;50.908;6.916;2023-02-19T16:47:29;11.07;;;6.10;;
76262;SDS011;65080;50.908;6.916;2023-02-19T16:50:00;9.30;;;5.70;;
76262;SDS011;65080;50.908;6.916;2023-02-19T16:52:30;11.80;;;6.77;;
76262;SDS011;65080;50.908;6.916;2023-02-19T16:54:58;10.60;;;6.57;;
76262;SDS011;65080;50.908;6.916;2023-02-19T16:57:27;8.03;;;6.30;;
76262;SDS011;65080;50.908;6.916;2023-02-19T16:59:55;9.47;;;6.67;;
76262;SDS011;65080;50.908;6.916;2023-02-19T17:02:24;13.00;;;7.80;;
76262;SDS011;65080;50.908;6.916;2023-02-19T17:04:53;9.70;;;6.87;;
76262;SDS011;65080;50.908;6.916;2023-02-19T17:07:22;10.50;;;6.73;;
76262;SDS011;65080;50.908;6.916;2023-02-19T17:09:52;10.37;;;7.40;;
76262;SDS011;65080;50.908;6.916;2023-02-19T17:12:21;12.77;;;7.80;;
76262;SDS011;65080;50.908;6.916;2023-02-19T17:14:49;10.40;;;7.70;;
76262;SDS011;65080;50.908;6.916;2023-02-19T17:17:18;13.30;;;8.07;;
76262;SDS011;65080;50.908;6.916;2023-02-19T17:19:46;11.10;;;7.70;;
76262;SDS011;65080;50.908;6.916;2023-02-19T17:22:16;11.13;;;7.93;;
76262;SDS011;65080;50.908;6.916;2023-02-19T17:24:45;10.33;;;7.50;;
76262;SDS011;65080;50.908;6.916;2023-02-19T17:27:13;11.93;;;7.50;;
76262;SDS011;65080;50.908;6.916;2023-02-19T17:29:42;12.43;;;7.70;;
76262;SDS011;65080;50.908;6.916;2023-02-19T17:32:10;13.53;;;7.43;;
76262;SDS011;65080;50.908;6.916;2023-02-19T17:34:40;11.70;;;7.40;;
76262;SDS011;65080;50.908;6.916;2023-02-19T17:37:08;9.03;;;6.93;;
76262;SDS011;65080;50.908;6.916;2023-02-19T17:39:38;10.27;;;6.90;;
76262;SDS011;65080;50.908;6.916;2023-02-19T17:42:06;9.03;;;7.23;;
76262;SDS011;65080;50.908;6.916;2023-02-19T17:44:35;10.20;;;5.93;;
76262;SDS011;65080;50.908;6.916;2023-02-19T17:47:03;9.33;;;5.90;;
76262;SDS011;65080;50.908;6.916;2023-02-19T17:49:32;6.67;;;5.80;;
76262;SDS011;65080;50.908;6.916;2023-02-19T17:52:01;6.47;;;4.20;;
76262;SDS011;65080;50.908;6.916;2023-02-19T17:54:30;5.80;;;4.17;;
76262;SDS011;65080;50.908;6.916;2023-02-19T17:56:59;9.70;;;6.63;;
76262;SDS011;65080;50.908;6.916;2023-02-19T17:59:27;5.87;;;5.00;;
76262;SDS011;65080;50.908;6.916;2023-02-19T18:01:56;4.73;;;4.00;;
76262;SDS011;65080;50.908;6.916;2023-02-19T18:04:24;4.90;;;3.37;;
76262;SDS011;65080;50.908;6.916;2023-02-19T18:06:52;5.10;;;3.30;;
76262;SDS011;65080;50.908;6.916;2023-02-19T18:09:21;4.07;;;2.73;;
76262;SDS011;65080;50.908;6.916;2023-02-19T18:11:49;5.97;;;2.60;;
76262;SDS011;65080;50.908;6.916;2023-02-19T18:14:19;3.73;;;2.30;;
76262;SDS011;65080;50.908;6.916;2023-02-19T18:16:47;3.70;;;2.20;;
76262;SDS011;65080;50.908;6.916;2023-02-19T18:19:16;3.00;;;1.80;;
76262;SDS011;65080;50.908;6.916;2023-02-19T18:21:45;3.10;;;2.63;;
76262;SDS011;65080;50.908;6.916;2023-02-19T18:24:13;3.10;;;1.23;;
76262;SDS011;65080;50.908;6.916;2023-02-19T18:26:41;3.80;;;1.30;;
76262;SDS011;65080;50.908;6.916;2023-02-19T18:29:10;4.77;;;1.60;;
76262;SDS011;65080;50.908;6.916;2023-02-19T18:31:40;2.43;;;1.13;;
76262;SDS011;65080;50.908;6.916;2023-02-19T18:34:13;3.30;;;1.30;;
76262;SDS011;65080;50.908;6.916;2023-02-19T18:36:44;2.83;;;1.67;;
76262;SDS011;65080;50.908;6.916;2023-02-19T18:39:13;1.70;;;0.90;;
76262;SDS011;65080;50.908;6.916;2023-02-19T18:41:45;1.57;;;0.70;;
76262;SDS011;65080;50.908;6.916;2023-02-19T18:44:17;3.63;;;1.10;;
76262;SDS011;65080;50.908;6.916;2023-02-19T18:46:47;2.33;;;0.83;;
76262;SDS011;65080;50.908;6.916;2023-02-19T18:49:16;2.60;;;0.90;;
76262;SDS011;65080;50.908;6.916;2023-02-19T18:51:46;1.37;;;0.70;;
76262;SDS011;65080;50.908;6.916;2023-02-19T18:54:14;1.50;;;1.10;;
76262;SDS011;65080;50.908;6.916;2023-02-19T18:56:43;0.80;;;0.70;;
76262;SDS011;65080;50.908;6.916;2023-02-19T18:59:12;1.87;;;0.90;;
76262;SDS011;65080;50.908;6.916;2023-02-19T19:01:40;2.23;;;0.97;;
76262;SDS011;65080;50.908;6.916;2023-02-19T19:04:10;2.73;;;0.80;;
76262;SDS011;65080;50.908;6.916;2023-02-19T19:06:39;1.90;;;1.07;;
76262;SDS011;65080;50.908;6.916;2023-02-19T19:09:07;2.50;;;1.07;;
76262;SDS011;65080;50.908;6.916;2023-02-19T19:11:35;1.40;;;0.80;;
76262;SDS011;65080;50.908;6.916;2023-02-19T19:14:04;3.63;;;1.03;;
76262;SDS011;65080;50.908;6.916;2023-02-19T19:16:32;2.93;;;1.17;;
76262;SDS011;65080;50.908;6.916;2023-02-19T19:19:01;1.37;;;1.20;;
76262;SDS011;65080;50.908;6.916;2023-02-19T19:21:31;1.80;;;1.10;;
76262;SDS011;65080;50.908;6.916;2023-02-19T19:23:59;4.90;;;1.33;;
76262;SDS011;65080;50.908;6.916;2023-02-19T19:26:27;3.90;;;1.43;;
76262;SDS011;65080;50.908;6.916;2023-02-19T19:28:55;1.87;;;1.00;;
76262;SDS011;65080;50.908;6.916;2023-02-19T19:31:24;2.10;;;1.07;;
76262;SDS011;65080;50.908;6.916;2023-02-19T19:33:53;1.80;;;1.10;;
76262;SDS011;65080;50.908;6.916;2023-02-19T19:36:21;1.73;;;1.30;;
76262;SDS011;65080;50.908;6.916;2023-02-19T19:38:51;2.23;;;1.10;;
76262;SDS011;65080;50.908;6.916;2023-02-19T19:41:19;1.90;;;1.40;;
76262;SDS011;65080;50.908;6.916;2023-02-19T19:43:47;2.83;;;1.73;;
76262;SDS011;65080;50.908;6.916;2023-02-19T19:46:16;3.30;;;1.43;;
76262;SDS011;65080;50.908;6.916;2023-02-19T19:48:46;2.73;;;1.40;;
76262;SDS011;65080;50.908;6.916;2023-02-19T19:51:15;3.00;;;1.30;;
76262;SDS011;65080;50.908;6.916;2023-02-19T19:53:45;2.40;;;1.57;;
76262;SDS011;65080;50.908;6.916;2023-02-19T19:56:15;1.80;;;1.37;;
76262;SDS011;65080;50.908;6.916;2023-02-19T19:58:44;6.20;;;1.83;;
76262;SDS011;65080;50.908;6.916;2023-02-19T20:01:14;2.43;;;1.90;;
76262;SDS011;65080;50.908;6.916;2023-02-19T20:03:46;1.60;;;1.20;;
76262;SDS011;65080;50.908;6.916;2023-02-19T20:06:21;1.83;;;1.33;;
76262;SDS011;65080;50.908;6.916;2023-02-19T20:08:50;1.67;;;1.40;;
76262;SDS011;65080;50.908;6.916;2023-02-19T20:11:20;2.30;;;1.60;;
76262;SDS011;65080;50.908;6.916;2023-02-19T20:13:48;5.00;;;2.23;;
76262;SDS011;65080;50.908;6.916;2023-02-19T20:16:22;3.57;;;1.67;;
76262;SDS011;65080;50.908;6.916;2023-02-19T20:18:51;2.30;;;1.50;;
76262;SDS011;65080;50.908;6.916;2023-02-19T20:21:20;1.60;;;1.40;;
76262;SDS011;65080;50.908;6.916;2023-02-19T20:23:48;1.27;;;1.17;;
76262;SDS011;65080;50.908;6.916;2023-02-19T20:26:22;4.63;;;2.10;;
76262;SDS011;65080;50.908;6.916;2023-02-19T20:28:51;1.50;;;1.30;;
76262;SDS011;65080;50.908;6.916;2023-02-19T20:31:20;3.07;;;1.33;;
76262;SDS011;65080;50.908;6.916;2023-02-19T20:33:51;2.93;;;1.37;;
76262;SDS011;65080;50.908;6.916;2023-02-19T20:36:20;3.97;;;1.70;;
76262;SDS011;65080;50.908;6.916;2023-02-19T20:38:48;1.80;;;1.27;;
76262;SDS011;65080;50.908;6.916;2023-02-19T20:41:17;2.70;;;1.70;;
76262;SDS011;65080;50.908;6.916;2023-02-19T20:43:47;2.37;;;1.70;;
76262;SDS011;65080;50.908;6.916;2023-02-19T20:46:15;6.13;;;1.60;;
76262;SDS011;65080;50.908;6.916;2023-02-19T20:48:44;1.73;;;1.37;;
76262;SDS011;65080;50.908;6.916;2023-02-19T20:51:12;3.33;;;1.87;;
76262;SDS011;65080;50.908;6.916;2023-02-19T20:53:52;4.33;;;1.70;;
76262;SDS011;65080;50.908;6.916;2023-02-19T20:56:53;2.37;;;1.80;;
76262;SDS011;65080;50.908;6.916;2023-02-19T20:59:27;2.80;;;2.00;;
76262;SDS011;65080;50.908;6.916;2023-02-19T21:02:00;2.40;;;2.20;;
76262;SDS011;65080;50.908;6.916;2023-02-19T21:04:38;2.20;;;1.70;;
76262;SDS011;65080;50.908;6.916;2023-02-19T21:07:06;3.53;;;1.30;;
76262;SDS011;65080;50.908;6.916;2023-02-19T21:09:35;1.93;;;1.43;;
76262;SDS011;65080;50.908;6.916;2023-02-19T21:12:03;2.20;;;1.50;;
76262;SDS011;65080;50.908;6.916;2023-02-19T21:14:33;2.73;;;1.60;;
76262;SDS011;65080;50.908;6.916;2023-02-19T21:17:01;2.07;;;1.30;;
76262;SDS011;65080;50.908;6.916;2023-02-19T21:19:29;2.60;;;1.57;;
76262;SDS011;65080;50.908;6.916;2023-02-19T21:21:58;2.13;;;1.53;;
76262;SDS011;65080;50.908;6.916;2023-02-19T21:24:26;3.53;;;1.60;;
76262;SDS011;65080;50.908;6.916;2023-02-19T21:26:54;3.03;;;1.60;;
76262;SDS011;65080;50.908;6.916;2023-02-19T21:29:22;2.03;;;1.60;;
76262;SDS011;65080;50.908;6.916;2023-02-19T21:31:53;1.97;;;1.33;;
76262;SDS011;65080;50.908;6.916;2023-02-19T21:34:23;1.80;;;1.50;;
76262;SDS011;65080;50.908;6.916;2023-02-19T21:36:53;2.83;;;1.93;;
76262;SDS011;65080;50.908;6.916;2023-02-19T21:39:22;2.20;;;1.80;;
76262;SDS011;65080;50.908;6.916;2023-02-19T21:41:51;1.43;;;1.23;;
76262;SDS011;65080;50.908;6.916;2023-02-19T21:44:20;1.77;;;1.43;;
76262;SDS011;65080;50.908;6.916;2023-02-19T21:46:48;2.87;;;1.83;;
76262;SDS011;65080;50.908;6.916;2023-02-19T21:49:17;1.90;;;1.43;;
76262;SDS011;65080;50.908;6.916;2023-02-19T21:51:45;7.00;;;2.27;;
76262;SDS011;65080;50.908;6.916;2023-02-19T21:54:15;2.40;;;2.00;;
76262;SDS011;65080;50.908;6.916;2023-02-19T21:56:46;2.30;;;2.10;;
76262;SDS011;65080;50.908;6.916;2023-02-19T21:59:15;3.70;;;2.70;;
76262;SDS011;65080;50.908;6.916;2023-02-19T22:01:43;2.93;;;2.13;;